Mc Williams, Alabama
Current Conditions -  °F | °C
As of 12:56 AM on Saturday 25 Oct 2014 (Local Time) from KPRN Reporting Station
Clear Clear  
Wind Chill: 54°   Ceiling: Unl
Heat Index: 54°   Visibility: 10mi
Dew Point: 43°   Wind: 6mph
Humidity: 66%   Direction: 340°NNW
Pressure: 30.06"   Gusts: NA
Location:  31.8356°N, 87.1016°W
Report Text: KPRN 250556Z AUTO 34005KT 10SM CLR 12/06 A3006 RMK AO2 SLP176 T01220061 10161 20100 402560089 56002
Loading
Personal Weather Stations






























Interactive Weather Map
Tropical Storm Tracking
New forecast layout! Learn more

10-Day Weather Forecast

Advertisements
Track Severe Weather on mobile